Monroe, Georgia
Current Conditions -  °F | °C
As of 5:15 AM on Wednesday 22 Oct 2014 (Local Time) from KWDR Reporting Station
Clear Clear  
Wind Chill: 52°   Ceiling: Unl
Heat Index: 52°   Visibility: 10mi
Dew Point: 43°   Wind: 0mph
Humidity: 72%   Direction: NA
Pressure: 30.05"   Gusts: NA
Location:  33.8°N, 83.71°W
Report Text: KWDR 220915Z AUTO 00000KT 10SM CLR 11/06 A3005 RMK AO2 T01100061
Loading
Personal Weather Stations






























Interactive Weather Map
Tropical Storm Tracking
New forecast layout! Learn more

10-Day Weather Forecast

Advertisements
Track Severe Weather on mobile